Terminal Aerodrome Forecast
Issued by NWS Sioux Falls, SD

Home | Current Version | Previous Version | Text Only | Print | Product List | Glossary On
Versions: 1 2 3 4 5 6 7 8 9 10 11 12 13 14 15 16
000
FTUS43 KFSD 280520
TAFHON
TAF
KHON 280520Z 2806/2906 19006KT P6SM SCT070 BKN150
     FM281100 01008KT P6SM SCT015
     FM281300 02008KT P6SM OVC015
      TEMPO 2817/2821 5SM -SHSN
     FM282100 04010KT P6SM BKN020 BKN080
     FM290100 02011KT P6SM OVC060=

USA.gov is the U.S. government's official web portal to all federal, state and local government web resources and services.